Time;durP1;ratioP1;P1;durP2;ratioP2;P2;SDS_P1;SDS_P2;PMS_P1;PMS_P2;Temp;Humidity;BMP_temperature;BMP_pressure;BME280_temperature;BME280_humidity;BME280_pressure;Samples;Min_cycle;Max_cycle;Signal;HPM_P1;HPM_P2
2023/05/06 00:00:36;;;;;;;4.85;2.22;;;15.40;99.90;;;;;;4875914;29;20040;-69
2023/05/06 05:01:56;;;;;;;6.13;3.65;;;13.40;99.90;;;;;;5612248;23;20056;-69
2023/05/06 05:04:21;;;;;;;5.88;4.07;;;13.40;99.90;;;;;;4889624;29;20294;-69
2023/05/06 05:06:48;;;;;;;6.22;3.90;;;13.40;99.90;;;;;;4899091;29;20318;-69
2023/05/06 05:09:14;;;;;;;6.45;4.10;;;13.50;99.90;;;;;;4900337;29;20033;-70
2023/05/06 05:11:42;;;;;;;6.05;4.03;;;13.50;99.90;;;;;;4883262;29;20112;-69
2023/05/06 05:14:08;;;;;;;7.80;4.82;;;13.50;99.90;;;;;;4890703;29;20040;-68
2023/05/06 05:16:34;;;;;;;7.43;4.75;;;13.60;99.90;;;;;;4890910;29;20051;-67
2023/05/06 05:19:01;;;;;;;7.53;3.90;;;13.60;99.90;;;;;;4890680;29;20028;-68
2023/05/06 05:21:28;;;;;;;5.75;3.80;;;13.70;99.90;;;;;;4890902;29;20037;-68
2023/05/06 05:23:54;;;;;;;4.82;3.60;;;13.80;99.90;;;;;;4906064;29;20040;-70
2023/05/06 05:26:21;;;;;;;6.03;3.22;;;13.90;99.90;;;;;;4891187;29;20104;-69
2023/05/06 05:28:48;;;;;;;5.38;3.33;;;14.00;99.90;;;;;;4890935;29;20385;-69
2023/05/06 05:31:14;;;;;;;10.30;4.07;;;14.10;99.90;;;;;;4890530;29;20040;-69
2023/05/06 05:33:41;;;;;;;9.60;4.18;;;14.20;99.90;;;;;;4890932;29;20037;-70
2023/05/06 05:36:14;;;;;;;8.43;5.10;;;14.30;99.90;;;;;;4890015;29;20032;-70
2023/05/06 05:38:40;;;;;;;11.00;6.20;;;14.40;99.90;;;;;;4907497;29;20321;-70
2023/05/06 05:41:06;;;;;;;9.13;5.70;;;14.60;99.90;;;;;;4890493;29;20103;-70
2023/05/06 05:43:33;;;;;;;9.88;5.93;;;14.70;99.90;;;;;;4890817;29;20323;-70
2023/05/06 05:46:00;;;;;;;9.15;6.20;;;14.80;99.90;;;;;;4875098;29;20036;-70
2023/05/06 05:48:26;;;;;;;11.15;6.40;;;14.80;99.90;;;;;;4907273;29;20027;-70
2023/05/06 05:50:52;;;;;;;10.77;6.22;;;14.90;99.90;;;;;;4890833;29;20031;-70
2023/05/06 05:53:19;;;;;;;10.18;5.60;;;15.00;99.90;;;;;;4890271;29;20314;-70
2023/05/06 05:55:44;;;;;;;8.73;5.38;;;15.10;99.90;;;;;;4907572;29;20035;-70
2023/05/06 05:58:10;;;;;;;7.78;5.25;;;15.20;99.90;;;;;;4879561;29;20045;-70
2023/05/06 06:00:37;;;;;;;10.77;6.18;;;15.20;99.90;;;;;;4905610;29;20100;-70
2023/05/06 06:03:10;;;;;;;8.10;5.78;;;15.20;99.90;;;;;;4892901;29;20342;-69
2023/05/06 06:05:37;;;;;;;10.07;5.70;;;15.20;99.90;;;;;;4905919;29;20031;-69
2023/05/06 06:08:03;;;;;;;10.65;5.45;;;15.30;99.90;;;;;;4890260;29;20028;-70
2023/05/06 06:10:29;;;;;;;8.73;5.75;;;15.50;99.90;;;;;;4890640;29;20040;-70
2023/05/06 06:12:55;;;;;;;8.93;5.47;;;15.70;99.90;;;;;;4907397;29;20028;-70
2023/05/06 06:15:25;;;;;;;9.10;5.03;;;15.90;99.90;;;;;;4875665;29;20027;-70
2023/05/06 06:17:53;;;;;;;7.15;4.53;;;16.10;99.90;;;;;;4892631;29;20024;-77
2023/05/06 06:20:20;;;;;;;6.65;4.13;;;16.30;99.90;;;;;;4893563;29;20024;-69
2023/05/06 06:22:45;;;;;;;6.07;3.97;;;16.40;99.90;;;;;;4910305;29;20352;-69
2023/05/06 06:25:11;;;;;;;6.90;4.30;;;16.40;99.90;;;;;;4893537;29;20024;-70
2023/05/06 06:27:37;;;;;;;7.28;4.80;;;16.60;99.90;;;;;;4910438;29;20067;-69
2023/05/06 06:30:04;;;;;;;6.00;3.72;;;16.70;99.90;;;;;;4893119;29;20149;-69
2023/05/06 06:32:29;;;;;;;6.63;3.78;;;16.80;99.90;;;;;;4893680;29;20032;-69
2023/05/06 06:34:55;;;;;;;7.03;3.65;;;16.90;99.90;;;;;;4909967;29;20032;-69
2023/05/06 06:37:22;;;;;;;5.63;3.58;;;16.90;99.90;;;;;;4909972;29;20029;-69
2023/05/06 06:39:48;;;;;;;4.93;3.08;;;17.00;99.90;;;;;;4910079;29;20028;-69
2023/05/06 06:42:13;;;;;;;5.97;3.00;;;17.10;99.90;;;;;;4909921;29;20028;-69
2023/05/06 06:44:48;;;;;;;5.53;3.30;;;17.30;99.90;;;;;;4893737;29;20025;-69
2023/05/06 06:47:14;;;;;;;4.97;2.85;;;17.50;99.90;;;;;;4910016;29;20059;-68
2023/05/06 06:49:39;;;;;;;5.47;2.50;;;17.70;99.90;;;;;;4910303;29;20063;-69
2023/05/06 06:52:05;;;;;;;6.43;3.28;;;17.90;99.90;;;;;;4909555;29;20361;-68
2023/05/06 06:54:30;;;;;;;6.75;3.05;;;18.10;99.90;;;;;;4910337;29;20029;-69
2023/05/06 06:56:56;;;;;;;4.75;2.35;;;18.30;99.90;;;;;;4909810;29;20322;-69
2023/05/06 06:59:22;;;;;;;4.80;2.38;;;18.30;99.90;;;;;;4909577;29;20029;-68
2023/05/06 07:01:48;;;;;;;6.55;1.73;;;18.40;99.90;;;;;;4909340;29;20040;-68
2023/05/06 07:04:13;;;;;;;4.15;1.40;;;18.50;99.90;;;;;;4909440;29;20040;-76
2023/05/06 07:06:39;;;;;;;3.92;1.00;;;18.30;99.90;;;;;;4909438;29;20040;-71
2023/05/06 07:09:05;;;;;;;3.60;1.00;;;18.10;99.90;;;;;;4908808;29;20048;-71
2023/05/06 07:11:30;;;;;;;3.83;1.10;;;18.00;99.90;;;;;;4909408;29;20063;-71
2023/05/06 07:13:56;;;;;;;2.53;1.13;;;17.90;99.90;;;;;;4909404;29;20036;-70
2023/05/06 07:16:22;;;;;;;6.55;1.60;;;17.90;99.90;;;;;;4909907;29;20092;-70
2023/05/06 07:18:48;;;;;;;3.88;1.10;;;17.90;99.90;;;;;;4909349;29;20028;-72
2023/05/06 07:21:14;;;;;;;3.25;1.20;;;17.90;99.90;;;;;;4909302;29;20052;-71
2023/05/06 07:23:40;;;;;;;4.32;1.80;;;17.90;99.90;;;;;;4909607;29;20084;-72
2023/05/06 07:26:06;;;;;;;3.22;1.60;;;18.10;99.90;;;;;;4909384;29;20040;-73
2023/05/06 07:28:31;;;;;;;3.53;1.40;;;18.00;99.90;;;;;;4909416;29;20032;-73
2023/05/06 07:30:57;;;;;;;4.05;1.30;;;18.20;99.90;;;;;;4909436;29;20206;-72
2023/05/06 07:33:23;;;;;;;4.22;1.38;;;18.30;99.90;;;;;;4908933;29;20072;-73
2023/05/06 07:35:48;;;;;;;2.88;1.00;;;18.50;99.90;;;;;;4909112;29;20059;-72
2023/05/06 07:38:14;;;;;;;3.63;1.40;;;18.70;99.90;;;;;;4908219;29;20017;-74
2023/05/06 07:40:40;;;;;;;3.75;1.30;;;18.80;99.90;;;;;;4892632;29;20337;-72
2023/05/06 07:43:06;;;;;;;5.03;1.33;;;18.70;99.90;;;;;;4908432;29;20074;-72
2023/05/06 07:45:32;;;;;;;4.10;1.50;;;18.60;99.90;;;;;;4913629;29;20431;-71
2023/05/06 07:47:58;;;;;;;4.90;1.38;;;18.50;99.90;;;;;;4909227;29;20040;-73
2023/05/06 07:50:24;;;;;;;3.70;1.23;;;18.40;99.90;;;;;;4908753;29;20088;-70
2023/05/06 07:52:49;;;;;;;3.90;1.40;;;18.40;99.90;;;;;;4892272;29;20107;-71
2023/05/06 07:55:15;;;;;;;2.15;1.13;;;18.40;99.90;;;;;;4908544;29;20322;-72
2023/05/06 07:57:41;;;;;;;2.95;1.08;;;18.40;99.90;;;;;;4908500;29;20024;-70
2023/05/06 08:00:08;;;;;;;4.15;1.13;;;18.70;99.90;;;;;;4908431;29;20028;-70
2023/05/06 08:02:46;;;;;;;3.92;1.10;;;18.90;99.90;;;;;;4908716;29;20230;-71
2023/05/06 08:05:12;;;;;;;2.17;1.10;;;19.30;99.90;;;;;;4908247;29;20032;-73
2023/05/06 08:07:42;;;;;;;5.00;1.20;;;19.70;99.90;;;;;;4908830;29;20037;-72
2023/05/06 08:10:09;;;;;;;4.45;1.10;;;19.80;99.90;;;;;;4908502;29;20041;-70
2023/05/06 08:12:35;;;;;;;1.70;0.70;;;20.10;99.30;;;;;;4908345;29;20071;-70
2023/05/06 08:15:01;;;;;;;3.17;0.80;;;20.40;99.10;;;;;;4908859;29;20033;-70
2023/05/06 08:17:27;;;;;;;2.05;0.50;;;20.50;98.20;;;;;;4891445;29;20349;-72
2023/05/06 08:19:54;;;;;;;2.80;0.65;;;20.70;96.20;;;;;;4907378;29;20040;-71
2023/05/06 08:22:19;;;;;;;3.35;0.60;;;20.80;96.70;;;;;;4907889;29;20337;-71
2023/05/06 08:24:46;;;;;;;2.25;0.60;;;21.00;95.10;;;;;;4908794;29;20338;-72
2023/05/06 08:27:12;;;;;;;2.17;0.60;;;21.10;94.90;;;;;;4907729;29;20036;-71
2023/05/06 08:29:38;;;;;;;2.97;0.63;;;21.10;94.10;;;;;;4908424;29;20032;-71
2023/05/06 08:32:04;;;;;;;3.40;0.68;;;20.70;94.60;;;;;;4908419;29;20060;-70
2023/05/06 08:34:29;;;;;;;1.77;0.70;;;20.80;94.60;;;;;;4891125;29;20025;-69
2023/05/06 08:36:55;;;;;;;1.35;0.50;;;21.10;94.30;;;;;;4891540;29;20036;-68
2023/05/06 08:39:21;;;;;;;1.70;0.70;;;21.40;94.40;;;;;;4907687;29;20027;-68
2023/05/06 08:41:49;;;;;;;2.05;0.60;;;21.60;92.80;;;;;;4907984;29;20033;-68
2023/05/06 08:44:17;;;;;;;1.93;0.70;;;21.50;93.20;;;;;;4907652;29;20093;-68
2023/05/06 08:46:44;;;;;;;2.20;0.80;;;21.30;93.30;;;;;;4907768;29;20631;-69
2023/05/06 08:49:10;;;;;;;1.27;0.68;;;21.30;93.90;;;;;;4907214;29;20047;-68
2023/05/06 08:51:37;;;;;;;2.25;0.90;;;21.30;93.90;;;;;;4907952;29;20218;-69
2023/05/06 08:54:04;;;;;;;4.40;1.00;;;21.20;94.00;;;;;;4907809;29;20247;-69
2023/05/06 08:56:32;;;;;;;3.03;1.23;;;21.30;93.60;;;;;;4907449;29;20040;-69
2023/05/06 08:58:58;;;;;;;2.42;0.88;;;21.30;93.50;;;;;;4907947;29;20332;-69
2023/05/06 09:01:28;;;;;;;1.77;0.80;;;21.00;93.70;;;;;;4909109;29;20028;-69
2023/05/06 09:03:58;;;;;;;2.53;0.70;;;20.70;93.30;;;;;;4908060;29;20134;-69
2023/05/06 09:06:24;;;;;;;2.22;0.80;;;20.50;93.30;;;;;;4907552;29;20077;-69
2023/05/06 09:08:50;;;;;;;1.95;0.68;;;20.50;93.60;;;;;;4907668;29;20068;-69
2023/05/06 09:11:20;;;;;;;5.28;1.10;;;20.60;93.40;;;;;;4907515;29;20029;-69
2023/05/06 09:13:46;;;;;;;3.60;1.23;;;20.40;93.30;;;;;;4907639;29;20145;-70
2023/05/06 09:16:28;;;;;;;2.45;1.10;;;20.40;93.70;;;;;;4907368;29;20298;-67
2023/05/06 09:18:54;;;;;;;3.22;1.10;;;20.80;93.50;;;;;;4907673;29;20036;-68
2023/05/06 09:21:20;;;;;;;4.80;1.20;;;21.20;93.00;;;;;;4907155;29;20318;-69
2023/05/06 09:23:46;;;;;;;2.28;0.82;;;21.60;93.40;;;;;;4907271;29;20044;-68
2023/05/06 09:26:11;;;;;;;2.40;0.77;;;22.00;92.20;;;;;;4906599;29;20296;-68
2023/05/06 09:28:38;;;;;;;2.20;0.70;;;22.10;91.30;;;;;;4907578;29;20070;-69
2023/05/06 09:31:03;;;;;;;1.85;0.55;;;22.40;90.80;;;;;;4907545;29;20319;-69
2023/05/06 09:33:29;;;;;;;3.00;0.60;;;22.50;90.50;;;;;;4890396;29;20063;-69
2023/05/06 09:35:55;;;;;;;2.78;0.68;;;22.90;90.50;;;;;;4907426;29;20036;-68
2023/05/06 09:38:21;;;;;;;2.40;0.80;;;22.80;89.20;;;;;;4907235;29;20091;-68
2023/05/06 09:40:47;;;;;;;2.67;0.80;;;23.00;89.30;;;;;;4890906;29;20119;-68
2023/05/06 09:43:14;;;;;;;1.98;0.70;;;23.20;87.30;;;;;;4907285;29;20239;-68
2023/05/06 09:45:40;;;;;;;3.50;0.90;;;23.30;88.50;;;;;;4907591;29;20099;-69
2023/05/06 09:48:07;;;;;;;3.10;0.75;;;23.60;86.70;;;;;;4907388;29;20040;-69
2023/05/06 09:50:35;;;;;;;1.83;0.80;;;23.50;86.00;;;;;;4907061;29;20087;-69
2023/05/06 09:53:03;;;;;;;2.70;0.80;;;23.50;87.00;;;;;;4909263;29;20477;-69
2023/05/06 09:55:29;;;;;;;;;;;23.40;86.50;;;;;;4894508;29;20040;-69
2023/05/06 09:57:56;;;;;;;3.08;1.15;;;23.10;85.20;;;;;;4910898;29;19907;-70
2023/05/06 10:00:26;;;;;;;3.47;0.75;;;22.70;85.70;;;;;;4910573;29;20100;-70
2023/05/06 10:02:53;;;;;;;4.20;1.05;;;22.60;87.30;;;;;;4910604;29;20212;-70
2023/05/06 10:05:20;;;;;;;3.13;0.98;;;22.80;88.80;;;;;;4910360;29;20092;-70
2023/05/06 10:07:48;;;;;;;1.90;0.80;;;22.80;87.30;;;;;;4911008;29;20058;-70
2023/05/06 10:10:14;;;;;;;;;;;22.90;88.50;;;;;;4910698;29;20243;-69
2023/05/06 10:12:40;;;;;;;2.92;0.85;;;23.20;86.80;;;;;;4910984;29;19939;-70
2023/05/06 10:15:07;;;;;;;2.10;0.65;;;23.20;86.10;;;;;;4910823;29;20032;-71
2023/05/06 10:17:33;;;;;;;2.67;0.80;;;23.00;84.80;;;;;;4909976;29;20088;-72
2023/05/06 10:20:00;;;;;;;1.95;0.50;;;23.00;84.70;;;;;;4910709;29;20032;-70
2023/05/06 10:22:48;;;;;;;2.78;1.00;;;23.00;84.60;;;;;;4910034;29;20032;-69
2023/05/06 10:25:21;;;;;;;2.17;0.80;;;23.20;84.90;;;;;;4910003;29;20036;-70
2023/05/06 10:27:47;;;;;;;2.13;0.95;;;23.20;84.80;;;;;;4910519;29;20314;-69
2023/05/06 10:30:17;;;;;;;2.30;0.70;;;22.90;83.90;;;;;;4909988;29;20028;-69
2023/05/06 10:32:44;;;;;;;2.17;0.98;;;22.70;84.10;;;;;;4910244;29;20318;-70
2023/05/06 10:35:30;;;;;;;2.70;0.90;;;22.80;85.00;;;;;;4910971;29;20251;-72
2023/05/06 10:37:57;;;;;;;2.47;1.10;;;22.90;84.50;;;;;;4910187;29;20330;-69
2023/05/06 10:40:23;;;;;;;4.10;1.00;;;23.30;84.10;;;;;;4910072;29;20081;-71
2023/05/06 10:42:50;;;;;;;2.20;0.70;;;23.60;83.10;;;;;;4910438;29;20204;-70
2023/05/06 10:45:16;;;;;;;7.32;2.60;;;23.70;82.00;;;;;;4909857;29;20036;-71
2023/05/06 10:47:56;;;;;;;13.13;5.28;;;23.90;82.30;;;;;;4910501;29;20196;-70
2023/05/06 10:50:24;;;;;;;5.60;2.22;;;24.00;82.20;;;;;;4909957;29;20036;-71
2023/05/06 10:52:54;;;;;;;3.33;1.33;;;23.90;81.30;;;;;;4910200;29;20088;-70
2023/05/06 10:55:33;;;;;;;7.32;3.42;;;24.10;82.00;;;;;;4909651;29;20340;-70
2023/05/06 10:58:09;;;;;;;5.85;2.20;;;24.20;81.70;;;;;;4910133;29;20037;-71
2023/05/06 11:00:35;;;;;;;2.38;0.98;;;24.30;80.60;;;;;;4909467;29;20094;-71
2023/05/06 11:03:04;;;;;;;3.72;0.90;;;24.50;79.50;;;;;;4909600;29;20330;-70
2023/05/06 11:05:30;;;;;;;1.50;0.65;;;24.80;77.70;;;;;;4908245;29;20036;-71
2023/05/06 11:08:09;;;;;;;3.47;1.00;;;24.80;77.50;;;;;;4909588;29;20307;-70
2023/05/06 11:10:35;;;;;;;3.97;1.30;;;24.50;77.90;;;;;;4909178;29;20040;-70
2023/05/06 11:13:27;;;;;;;2.67;0.80;;;24.70;77.70;;;;;;4909905;29;20035;-72
2023/05/06 11:15:54;;;;;;;3.95;1.00;;;24.90;78.60;;;;;;4909439;29;20044;-71
2023/05/06 11:20:59;;;;;;;1.73;0.70;;;25.10;77.10;;;;;;4892907;29;20037;-70
2023/05/06 11:23:56;;;;;;;2.40;0.75;;;25.60;75.90;;;;;;4909138;29;20059;-72
2023/05/06 11:26:23;;;;;;;1.83;0.63;;;26.10;74.50;;;;;;4909076;29;20041;-72
2023/05/06 11:28:50;;;;;;;2.67;0.77;;;26.30;73.40;;;;;;4909369;29;20040;-70
2023/05/06 11:31:16;;;;;;;2.35;0.70;;;26.70;72.60;;;;;;4909181;29;20025;-70
2023/05/06 11:33:46;;;;;;;2.08;0.70;;;27.00;71.20;;;;;;4909523;29;20059;-72
2023/05/06 11:36:17;;;;;;;1.85;0.70;;;27.60;71.00;;;;;;4909522;29;20051;-71
2023/05/06 11:38:45;;;;;;;1.98;0.50;;;28.40;67.90;;;;;;4906007;29;20033;-71
2023/05/06 11:41:12;;;;;;;1.70;0.70;;;29.10;68.30;;;;;;4909389;29;20188;-73
2023/05/06 11:43:38;;;;;;;3.00;0.45;;;29.80;65.70;;;;;;4908504;29;20096;-71
2023/05/06 11:46:04;;;;;;;1.73;0.63;;;30.50;64.70;;;;;;4908961;29;20036;-72
2023/05/06 11:48:30;;;;;;;2.63;0.75;;;31.30;62.40;;;;;;4905916;29;20051;-73
2023/05/06 11:50:56;;;;;;;2.15;0.60;;;32.00;64.50;;;;;;4903255;29;20036;-71
2023/05/06 11:53:23;;;;;;;1.30;0.50;;;32.80;61.00;;;;;;4904579;29;20040;-72
2023/05/06 11:55:52;;;;;;;2.28;0.60;;;33.00;59.70;;;;;;4908844;29;20235;-72
2023/05/06 11:58:26;;;;;;;2.30;0.68;;;32.70;59.40;;;;;;4908497;29;20078;-72
2023/05/06 12:01:02;;;;;;;1.80;0.60;;;32.90;58.10;;;;;;4908843;29;20033;-71
2023/05/06 12:03:30;;;;;;;2.03;0.77;;;32.00;59.10;;;;;;4908601;29;20056;-71
2023/05/06 12:05:56;;;;;;;2.10;0.45;;;31.10;59.50;;;;;;4908569;29;20036;-71
2023/05/06 12:08:24;;;;;;;1.73;0.60;;;31.40;60.30;;;;;;4908345;29;20084;-72
2023/05/06 12:11:00;;;;;;;1.88;0.70;;;32.20;59.40;;;;;;4908800;29;20319;-71
2023/05/06 12:13:27;;;;;;;1.45;0.63;;;32.20;58.50;;;;;;4908247;29;20055;-71
2023/05/06 12:15:54;;;;;;;1.58;0.80;;;31.50;58.50;;;;;;4907638;29;20033;-72
2023/05/06 12:18:20;;;;;;;2.13;0.88;;;30.10;59.40;;;;;;4908260;29;20095;-72
2023/05/06 12:20:46;;;;;;;1.88;0.70;;;29.60;61.30;;;;;;4908096;29;20214;-72
2023/05/06 12:23:13;;;;;;;2.45;1.02;;;29.00;61.80;;;;;;4908486;29;20040;-72
2023/05/06 12:25:41;;;;;;;2.58;0.77;;;28.20;63.20;;;;;;4908142;29;20371;-71
2023/05/06 12:28:14;;;;;;;1.83;0.70;;;27.40;64.70;;;;;;4908572;29;20103;-71
2023/05/06 12:30:40;;;;;;;2.67;1.00;;;26.80;66.40;;;;;;4907988;29;20418;-72
2023/05/06 12:33:07;;;;;;;2.05;0.77;;;26.90;66.50;;;;;;4921422;29;20056;-71
2023/05/06 12:35:32;;;;;;;3.47;0.80;;;28.20;64.30;;;;;;4926629;29;20313;-72
2023/05/06 12:38:12;;;;;;;1.65;0.50;;;29.60;62.20;;;;;;4926545;29;20046;-69
2023/05/06 12:40:38;;;;;;;1.85;0.70;;;30.40;61.00;;;;;;4926512;29;20199;-70
2023/05/06 12:43:04;;;;;;;1.85;0.70;;;30.10;59.40;;;;;;4926854;29;20040;-70
2023/05/06 12:45:30;;;;;;;1.90;0.77;;;29.60;60.30;;;;;;4926651;29;20048;-70
2023/05/06 12:47:58;;;;;;;2.58;0.50;;;29.40;60.60;;;;;;4926763;29;20087;-70
2023/05/06 12:50:41;;;;;;;5.22;0.90;;;29.40;60.80;;;;;;4926509;29;20032;-71
2023/05/06 12:53:09;;;;;;;1.40;0.63;;;29.40;61.50;;;;;;4926617;29;20039;-71
2023/05/06 12:55:40;;;;;;;1.88;0.60;;;29.80;61.40;;;;;;4926457;29;20225;-71
2023/05/06 12:58:26;;;;;;;2.95;1.17;;;30.50;62.00;;;;;;4926932;29;20038;-70
2023/05/06 13:00:52;;;;;;;2.85;1.05;;;31.30;58.80;;;;;;4926660;29;20230;-71
2023/05/06 13:03:17;;;;;;;1.63;0.60;;;30.90;59.30;;;;;;4926536;29;20071;-70
2023/05/06 13:05:47;;;;;;;2.05;0.70;;;30.90;58.70;;;;;;4926289;29;20044;-70
2023/05/06 13:08:12;;;;;;;1.52;0.57;;;31.70;59.40;;;;;;4926917;29;20039;-71
2023/05/06 13:10:38;;;;;;;2.95;0.60;;;32.50;57.40;;;;;;4924176;29;20024;-71
2023/05/06 13:13:04;;;;;;;2.05;0.70;;;32.90;56.10;;;;;;4926718;29;20040;-69
2023/05/06 13:15:30;;;;;;;1.73;0.47;;;32.80;55.50;;;;;;4926445;29;20031;-70
2023/05/06 13:17:57;;;;;;;2.25;0.73;;;32.40;56.10;;;;;;4926512;29;20338;-69
2023/05/06 13:20:23;;;;;;;1.47;0.63;;;32.20;57.50;;;;;;4926103;29;20032;-71
2023/05/06 13:22:48;;;;;;;1.45;0.57;;;32.40;56.60;;;;;;4926285;29;20064;-69
2023/05/06 13:25:14;;;;;;;1.77;0.57;;;32.80;56.30;;;;;;4926782;29;20036;-70
2023/05/06 13:27:40;;;;;;;1.85;0.43;;;33.00;54.30;;;;;;4931936;29;20095;-70
2023/05/06 13:30:07;;;;;;;2.97;0.60;;;33.70;55.30;;;;;;4933182;29;20024;-70
2023/05/06 13:32:33;;;;;;;2.85;1.10;;;34.20;53.80;;;;;;4932536;29;20040;-70
2023/05/06 13:34:59;;;;;;;2.63;0.70;;;34.30;53.30;;;;;;4932625;29;20036;-69
2023/05/06 13:37:24;;;;;;;1.60;0.60;;;34.50;54.80;;;;;;4920722;29;20329;-70
2023/05/06 13:39:50;;;;;;;1.85;0.57;;;34.40;62.20;;;;;;4930525;29;20043;-71
2023/05/06 13:42:16;;;;;;;1.25;0.60;;;33.90;63.30;;;;;;4932705;29;20024;-70
2023/05/06 13:44:41;;;;;;;1.65;0.60;;;34.80;60.80;;;;;;4931939;29;20076;-70
2023/05/06 13:47:07;;;;;;;2.42;0.82;;;35.50;52.10;;;;;;4932618;29;20059;-70
2023/05/06 13:49:33;;;;;;;2.67;1.00;;;34.10;52.40;;;;;;4932235;29;20036;-70
2023/05/06 13:51:58;;;;;;;1.60;0.60;;;33.30;53.40;;;;;;4932594;29;20075;-70
2023/05/06 13:54:24;;;;;;;1.58;0.50;;;33.00;53.70;;;;;;4932667;29;20048;-70
2023/05/06 13:56:50;;;;;;;1.73;0.40;;;32.80;53.60;;;;;;4932215;29;20066;-70
2023/05/06 13:59:16;;;;;;;3.05;0.57;;;32.80;53.50;;;;;;4932460;29;20071;-70
2023/05/06 14:01:41;;;;;;;1.65;0.45;;;33.20;52.90;;;;;;4931641;29;20052;-70
2023/05/06 14:04:07;;;;;;;3.25;0.40;;;33.70;52.50;;;;;;4932617;29;20074;-70
2023/05/06 14:06:33;;;;;;;3.00;0.40;;;34.00;51.50;;;;;;4931861;29;20040;-70
2023/05/06 14:08:59;;;;;;;1.13;0.32;;;;;;;;;;4932230;29;20336;-70
2023/05/06 14:11:25;;;;;;;2.80;0.85;;;35.70;51.00;;;;;;4926403;29;20036;-70
2023/05/06 14:13:51;;;;;;;1.55;0.50;;;36.80;49.90;;;;;;4932334;29;20095;-71
2023/05/06 14:16:17;;;;;;;2.67;0.40;;;37.80;48.80;;;;;;4932119;29;20036;-71
2023/05/06 14:18:42;;;;;;;0.90;0.32;;;38.10;49.30;;;;;;4931744;29;20019;-70
2023/05/06 14:21:11;;;;;;;1.30;0.47;;;38.10;47.50;;;;;;4932610;29;20032;-70
2023/05/06 14:23:40;;;;;;;1.90;0.60;;;37.50;47.70;;;;;;4931850;29;20097;-70
2023/05/06 14:26:06;;;;;;;3.08;1.13;;;37.10;47.80;;;;;;4932354;29;20058;-70
2023/05/06 14:28:31;;;;;;;3.20;0.70;;;36.30;48.20;;;;;;4931949;29;20107;-69
2023/05/06 14:30:58;;;;;;;1.40;0.30;;;36.70;49.00;;;;;;4932204;29;20039;-70
2023/05/06 14:33:24;;;;;;;1.98;0.60;;;36.50;48.10;;;;;;4932239;29;20217;-70
2023/05/06 14:35:51;;;;;;;3.13;0.47;;;36.40;48.70;;;;;;4931475;29;20026;-72
2023/05/06 14:38:17;;;;;;;1.45;0.35;;;37.10;48.10;;;;;;4911381;29;20348;-70
2023/05/06 14:40:43;;;;;;;1.73;0.50;;;36.80;47.30;;;;;;4928895;29;20036;-84
2023/05/06 14:43:14;;;;;;;0.93;0.30;;;36.50;48.30;;;;;;4913436;29;20047;-71
2023/05/06 14:45:40;;;;;;;1.33;0.35;;;37.00;47.40;;;;;;4928557;29;20378;-71
2023/05/06 14:48:06;;;;;;;1.33;0.40;;;37.20;46.70;;;;;;4928926;29;20051;-72
2023/05/06 14:50:32;;;;;;;2.20;0.52;;;36.60;46.90;;;;;;4928655;29;20032;-72
2023/05/06 14:52:57;;;;;;;1.65;0.38;;;36.30;47.00;;;;;;4928862;29;20325;-71
2023/05/06 14:55:23;;;;;;;3.10;0.70;;;35.70;47.10;;;;;;4928560;29;20028;-72
2023/05/06 14:57:49;;;;;;;1.77;0.60;;;35.80;48.00;;;;;;4928641;29;20043;-72
2023/05/06 15:00:16;;;;;;;2.30;0.60;;;36.40;48.60;;;;;;4929088;29;20083;-72
2023/05/06 15:02:41;;;;;;;2.42;0.60;;;36.60;46.90;;;;;;4927731;29;20274;-72
2023/05/06 15:05:09;;;;;;;2.05;0.50;;;36.60;47.30;;;;;;4928635;29;20052;-72
2023/05/06 15:07:35;;;;;;;2.13;0.63;;;36.80;47.10;;;;;;4928545;29;20226;-72
2023/05/06 15:10:01;;;;;;;1.48;0.52;;;37.20;46.80;;;;;;4928403;29;20028;-72
2023/05/06 15:12:27;;;;;;;2.00;0.60;;;37.30;46.70;;;;;;4928577;29;20079;-72
2023/05/06 15:14:53;;;;;;;1.08;0.22;;;37.30;46.20;;;;;;4928176;29;20254;-70
2023/05/06 15:17:20;;;;;;;1.65;0.40;;;37.00;45.80;;;;;;4928317;29;20087;-71
2023/05/06 15:19:45;;;;;;;1.30;0.32;;;37.00;46.10;;;;;;4927975;29;20281;-70
2023/05/06 15:22:11;;;;;;;1.98;0.45;;;37.50;45.30;;;;;;4928240;29;20036;-72
2023/05/06 15:24:37;;;;;;;2.65;0.40;;;36.90;46.50;;;;;;4928134;29;20035;-73
2023/05/06 15:27:02;;;;;;;1.20;0.50;;;37.10;45.70;;;;;;4928242;29;20063;-71
2023/05/06 15:29:29;;;;;;;2.22;0.82;;;37.20;46.50;;;;;;4928219;29;20036;-71
2023/05/06 15:31:54;;;;;;;2.40;0.43;;;37.30;45.60;;;;;;4927418;29;20036;-71
2023/05/06 15:34:20;;;;;;;1.20;0.30;;;37.80;45.60;;;;;;4928107;29;20063;-71
2023/05/06 15:36:50;;;;;;;1.42;0.50;;;38.20;44.60;;;;;;4916645;29;20051;-71
2023/05/06 15:39:17;;;;;;;1.33;0.60;;;37.30;45.20;;;;;;4915733;29;20043;-71
2023/05/06 15:41:42;;;;;;;1.88;0.30;;;36.40;45.10;;;;;;4927729;29;20036;-71
2023/05/06 15:44:10;;;;;;;2.03;0.43;;;35.90;45.30;;;;;;4928064;29;20280;-71
2023/05/06 15:46:36;;;;;;;1.20;0.30;;;35.30;46.10;;;;;;4927566;29;20040;-73
2023/05/06 15:49:01;;;;;;;1.00;0.40;;;34.80;47.80;;;;;;4927389;29;20032;-72
2023/05/06 15:51:27;;;;;;;1.55;0.70;;;35.00;46.00;;;;;;4927573;29;20036;-73
2023/05/06 15:53:53;;;;;;;1.90;0.50;;;34.90;47.00;;;;;;4927438;29;20044;-72
2023/05/06 15:56:19;;;;;;;1.20;0.38;;;35.20;46.00;;;;;;4928274;29;20040;-72
2023/05/06 15:58:45;;;;;;;1.77;0.60;;;35.50;45.90;;;;;;4927223;29;20247;-72
2023/05/06 16:01:12;;;;;;;1.17;0.40;;;35.00;45.20;;;;;;4927465;29;20084;-73
2023/05/06 16:03:40;;;;;;;1.45;0.50;;;34.90;46.50;;;;;;4926755;29;20103;-73
2023/05/06 16:06:08;;;;;;;1.05;0.40;;;34.60;45.90;;;;;;4927812;29;20043;-71
2023/05/06 16:08:34;;;;;;;1.95;0.28;;;34.50;47.70;;;;;;4927062;29;20055;-71
2023/05/06 16:10:59;;;;;;;1.92;0.45;;;34.70;46.60;;;;;;4927372;29;20348;-71
2023/05/06 16:13:25;;;;;;;2.05;0.40;;;34.80;45.60;;;;;;4927761;29;20052;-70
2023/05/06 16:15:51;;;;;;;1.52;0.40;;;34.50;46.30;;;;;;4927308;29;20124;-70
2023/05/06 16:18:17;;;;;;;1.60;0.35;;;33.30;46.80;;;;;;4927658;29;20099;-70
2023/05/06 16:20:43;;;;;;;2.33;0.40;;;32.70;47.20;;;;;;4927234;29;20111;-71
2023/05/06 16:23:09;;;;;;;2.35;0.80;;;31.70;48.50;;;;;;4927134;29;20031;-72
2023/05/06 16:25:37;;;;;;;1.48;0.57;;;31.40;48.50;;;;;;4894116;29;20028;-71
2023/05/06 16:28:03;;;;;;;;;;;31.00;49.10;;;;;;4927881;29;20036;-70
2023/05/06 16:30:28;;;;;;;2.05;0.60;;;30.80;49.30;;;;;;4926924;29;19907;-71
2023/05/06 16:32:54;;;;;;;1.48;0.40;;;31.20;49.40;;;;;;4926955;29;20131;-71
2023/05/06 16:35:20;;;;;;;1.13;0.40;;;31.60;48.50;;;;;;4926763;29;20032;-71
2023/05/06 16:37:45;;;;;;;1.35;0.40;;;31.80;48.20;;;;;;4926716;29;20091;-70
2023/05/06 16:40:13;;;;;;;1.38;0.47;;;32.10;48.00;;;;;;4927163;29;20052;-71
2023/05/06 16:42:39;;;;;;;1.52;0.50;;;32.70;47.70;;;;;;4926323;29;20036;-70
2023/05/06 16:45:06;;;;;;;1.73;0.60;;;32.30;47.50;;;;;;4926706;29;20365;-70
2023/05/06 16:47:32;;;;;;;1.75;0.60;;;31.50;48.10;;;;;;4927030;29;20326;-70
2023/05/06 16:49:57;;;;;;;1.75;0.70;;;30.90;48.90;;;;;;4926289;29;20099;-71
2023/05/06 16:52:23;;;;;;;1.35;0.35;;;30.20;50.20;;;;;;4926979;29;20016;-70
2023/05/06 16:54:50;;;;;;;1.10;0.35;;;29.50;50.10;;;;;;4925717;29;20046;-71
2023/05/06 16:57:16;;;;;;;0.85;0.32;;;29.00;50.90;;;;;;4926911;29;20209;-71
2023/05/06 16:59:42;;;;;;;1.45;0.40;;;28.70;51.00;;;;;;4926554;29;20024;-71
2023/05/06 17:02:07;;;;;;;2.65;0.52;;;28.40;51.30;;;;;;4925849;29;20044;-71
2023/05/06 17:04:33;;;;;;;2.15;0.40;;;27.90;52.20;;;;;;4926657;29;20310;-71
2023/05/06 17:06:59;;;;;;;2.33;0.43;;;27.60;54.10;;;;;;4926115;29;20028;-70
2023/05/06 17:09:25;;;;;;;2.97;0.70;;;27.40;52.60;;;;;;4926927;29;20310;-70
2023/05/06 17:11:51;;;;;;;3.00;0.40;;;27.00;53.10;;;;;;4926429;29;20043;-71
2023/05/06 17:14:18;;;;;;;2.22;0.40;;;26.50;53.40;;;;;;4926573;29;20032;-71
2023/05/06 17:16:44;;;;;;;1.58;0.30;;;26.20;55.20;;;;;;4926122;29;20295;-71
2023/05/06 17:19:11;;;;;;;2.03;0.60;;;25.90;54.20;;;;;;4926437;29;20023;-71
2023/05/06 17:21:37;;;;;;;1.92;0.98;;;25.50;55.10;;;;;;4926672;29;20040;-71
2023/05/06 17:24:03;;;;;;;2.17;0.68;;;25.30;55.90;;;;;;4925167;29;20035;-70
2023/05/06 17:26:33;;;;;;;3.13;0.95;;;25.00;56.40;;;;;;4926225;29;20039;-71
2023/05/06 17:28:59;;;;;;;1.60;0.80;;;24.70;57.10;;;;;;4926049;29;20099;-71
2023/05/06 17:31:25;;;;;;;3.00;0.88;;;24.50;57.60;;;;;;4926396;29;20052;-71
2023/05/06 17:33:51;;;;;;;1.83;0.60;;;24.40;58.00;;;;;;4925462;29;20036;-71
2023/05/06 17:36:20;;;;;;;1.88;0.80;;;24.30;58.50;;;;;;4926313;29;20095;-71
2023/05/06 17:38:46;;;;;;;1.85;0.90;;;24.00;58.80;;;;;;4925886;29;20032;-70
2023/05/06 17:41:12;;;;;;;1.92;0.90;;;23.90;60.00;;;;;;4909518;29;20277;-70
2023/05/06 17:43:38;;;;;;;2.03;0.70;;;23.70;60.00;;;;;;4926345;29;20028;-70
2023/05/06 17:46:05;;;;;;;2.20;1.05;;;23.60;61.10;;;;;;4926188;29;20036;-70
2023/05/06 17:48:31;;;;;;;2.75;0.80;;;23.50;61.10;;;;;;4926104;29;20088;-70